sensor_id;sensor_type;location;lat;lon;timestamp;temperature;humidity
62575;DHT22;53112;45.602;11.904;2023-02-01T00:01:45;3.00;69.00
62575;DHT22;53112;45.602;11.904;2023-02-01T00:04:11;3.00;69.30
62575;DHT22;53112;45.602;11.904;2023-02-01T00:06:37;2.90;71.90
62575;DHT22;53112;45.602;11.904;2023-02-01T00:09:03;3.10;70.50
62575;DHT22;53112;45.602;11.904;2023-02-01T00:11:29;2.90;70.50
62575;DHT22;53112;45.602;11.904;2023-02-01T00:13:56;2.80;72.60
62575;DHT22;53112;45.602;11.904;2023-02-01T00:16:26;3.00;71.10
62575;DHT22;53112;45.602;11.904;2023-02-01T00:18:59;3.10;70.10
62575;DHT22;53112;45.602;11.904;2023-02-01T00:21:26;2.90;70.30
62575;DHT22;53112;45.602;11.904;2023-02-01T00:23:52;3.10;69.30
62575;DHT22;53112;45.602;11.904;2023-02-01T00:26:32;3.20;67.60
62575;DHT22;53112;45.602;11.904;2023-02-01T00:28:59;3.00;69.40
62575;DHT22;53112;45.602;11.904;2023-02-01T00:31:26;3.10;69.20
62575;DHT22;53112;45.602;11.904;2023-02-01T00:33:51;3.10;69.00
62575;DHT22;53112;45.602;11.904;2023-02-01T00:36:17;2.90;69.80
62575;DHT22;53112;45.602;11.904;2023-02-01T00:38:44;2.90;71.30
62575;DHT22;53112;45.602;11.904;2023-02-01T00:41:19;3.00;71.30
62575;DHT22;53112;45.602;11.904;2023-02-01T00:43:45;3.00;72.00
62575;DHT22;53112;45.602;11.904;2023-02-01T00:46:13;3.10;70.80
62575;DHT22;53112;45.602;11.904;2023-02-01T00:48:39;3.00;71.80
62575;DHT22;53112;45.602;11.904;2023-02-01T00:51:11;2.90;70.80
62575;DHT22;53112;45.602;11.904;2023-02-01T00:53:37;3.00;71.20
62575;DHT22;53112;45.602;11.904;2023-02-01T00:56:03;3.20;70.40
62575;DHT22;53112;45.602;11.904;2023-02-01T00:58:31;3.30;69.20
62575;DHT22;53112;45.602;11.904;2023-02-01T01:01:18;3.30;68.70
62575;DHT22;53112;45.602;11.904;2023-02-01T01:03:50;3.40;67.90
62575;DHT22;53112;45.602;11.904;2023-02-01T01:06:20;3.40;67.20
62575;DHT22;53112;45.602;11.904;2023-02-01T01:08:46;3.40;67.40
62575;DHT22;53112;45.602;11.904;2023-02-01T01:11:18;3.30;66.70
62575;DHT22;53112;45.602;11.904;2023-02-01T01:13:47;3.20;67.00
62575;DHT22;53112;45.602;11.904;2023-02-01T01:16:13;3.00;67.20
62575;DHT22;53112;45.602;11.904;2023-02-01T01:18:39;3.00;67.60
62575;DHT22;53112;45.602;11.904;2023-02-01T01:21:07;2.70;69.90
62575;DHT22;53112;45.602;11.904;2023-02-01T01:23:34;2.70;70.60
62575;DHT22;53112;45.602;11.904;2023-02-01T01:26:00;2.80;69.80
62575;DHT22;53112;45.602;11.904;2023-02-01T01:28:26;2.90;68.80
62575;DHT22;53112;45.602;11.904;2023-02-01T01:30:52;3.00;69.60
62575;DHT22;53112;45.602;11.904;2023-02-01T01:33:17;3.00;70.30
62575;DHT22;53112;45.602;11.904;2023-02-01T01:35:43;3.10;68.90
62575;DHT22;53112;45.602;11.904;2023-02-01T01:38:10;3.10;69.50
62575;DHT22;53112;45.602;11.904;2023-02-01T01:40:37;3.10;68.20
62575;DHT22;53112;45.602;11.904;2023-02-01T01:43:02;3.10;67.60
62575;DHT22;53112;45.602;11.904;2023-02-01T01:45:33;3.00;67.20
62575;DHT22;53112;45.602;11.904;2023-02-01T01:48:47;3.10;66.90
62575;DHT22;53112;45.602;11.904;2023-02-01T01:51:01;3.00;66.90
62575;DHT22;53112;45.602;11.904;2023-02-01T01:53:40;3.10;67.00
62575;DHT22;53112;45.602;11.904;2023-02-01T01:56:10;2.70;68.60
62575;DHT22;53112;45.602;11.904;2023-02-01T01:58:37;2.70;68.90
62575;DHT22;53112;45.602;11.904;2023-02-01T02:01:03;2.60;68.80
62575;DHT22;53112;45.602;11.904;2023-02-01T02:03:37;2.70;68.40
62575;DHT22;53112;45.602;11.904;2023-02-01T02:06:07;2.80;67.60
62575;DHT22;53112;45.602;11.904;2023-02-01T02:08:39;2.80;68.60
62575;DHT22;53112;45.602;11.904;2023-02-01T02:11:05;2.80;68.50
62575;DHT22;53112;45.602;11.904;2023-02-01T02:13:38;2.90;67.70
62575;DHT22;53112;45.602;11.904;2023-02-01T02:27:14;2.80;68.60
62575;DHT22;53112;45.602;11.904;2023-02-01T02:41:54;2.50;69.60
62575;DHT22;53112;45.602;11.904;2023-02-01T02:48:15;2.80;68.30
62575;DHT22;53112;45.602;11.904;2023-02-01T02:51:05;2.80;68.70
62575;DHT22;53112;45.602;11.904;2023-02-01T02:56:49;2.90;67.90
62575;DHT22;53112;45.602;11.904;2023-02-01T02:59:35;3.00;66.50
62575;DHT22;53112;45.602;11.904;2023-02-01T03:02:21;3.00;66.00
62575;DHT22;53112;45.602;11.904;2023-02-01T03:05:06;2.90;65.80
62575;DHT22;53112;45.602;11.904;2023-02-01T03:10:23;2.60;67.80
62575;DHT22;53112;45.602;11.904;2023-02-01T03:12:51;2.60;67.00
62575;DHT22;53112;45.602;11.904;2023-02-01T03:15:24;2.60;67.00
62575;DHT22;53112;45.602;11.904;2023-02-01T03:17:55;2.50;67.50
62575;DHT22;53112;45.602;11.904;2023-02-01T03:20:22;2.40;67.50
62575;DHT22;53112;45.602;11.904;2023-02-01T03:22:51;2.50;66.90
62575;DHT22;53112;45.602;11.904;2023-02-01T03:25:22;2.60;66.60
62575;DHT22;53112;45.602;11.904;2023-02-01T03:27:57;2.60;66.80
62575;DHT22;53112;45.602;11.904;2023-02-01T03:33:05;2.10;68.10
62575;DHT22;53112;45.602;11.904;2023-02-01T03:41:00;2.30;67.90
62575;DHT22;53112;45.602;11.904;2023-02-01T03:43:33;2.30;67.00
62575;DHT22;53112;45.602;11.904;2023-02-01T03:46:03;2.10;68.20
62575;DHT22;53112;45.602;11.904;2023-02-01T03:48:31;2.10;69.00
62575;DHT22;53112;45.602;11.904;2023-02-01T03:51:00;2.20;67.90
62575;DHT22;53112;45.602;11.904;2023-02-01T03:53:28;1.90;68.20
62575;DHT22;53112;45.602;11.904;2023-02-01T03:55:54;1.80;70.20
62575;DHT22;53112;45.602;11.904;2023-02-01T03:58:22;1.80;69.30
62575;DHT22;53112;45.602;11.904;2023-02-01T04:00:56;2.00;68.60
62575;DHT22;53112;45.602;11.904;2023-02-01T04:03:23;2.20;67.70
62575;DHT22;53112;45.602;11.904;2023-02-01T04:05:51;2.20;67.40
62575;DHT22;53112;45.602;11.904;2023-02-01T04:08:18;2.20;67.80
62575;DHT22;53112;45.602;11.904;2023-02-01T04:10:45;2.10;67.40
62575;DHT22;53112;45.602;11.904;2023-02-01T04:13:11;2.00;67.60
62575;DHT22;53112;45.602;11.904;2023-02-01T04:15:37;1.60;68.70
62575;DHT22;53112;45.602;11.904;2023-02-01T04:18:04;1.70;68.80
62575;DHT22;53112;45.602;11.904;2023-02-01T04:20:30;1.80;68.40
62575;DHT22;53112;45.602;11.904;2023-02-01T04:22:56;1.90;68.50
62575;DHT22;53112;45.602;11.904;2023-02-01T04:25:22;2.00;67.60
62575;DHT22;53112;45.602;11.904;2023-02-01T04:27:48;2.00;67.30
62575;DHT22;53112;45.602;11.904;2023-02-01T04:30:14;1.80;67.30
62575;DHT22;53112;45.602;11.904;2023-02-01T04:32:40;1.80;67.50
62575;DHT22;53112;45.602;11.904;2023-02-01T04:35:07;1.80;66.90
62575;DHT22;53112;45.602;11.904;2023-02-01T04:37:33;1.80;66.90
62575;DHT22;53112;45.602;11.904;2023-02-01T04:39:59;1.80;67.10
62575;DHT22;53112;45.602;11.904;2023-02-01T04:42:25;1.80;67.40
62575;DHT22;53112;45.602;11.904;2023-02-01T04:44:51;1.70;67.20
62575;DHT22;53112;45.602;11.904;2023-02-01T04:47:17;1.70;67.40
62575;DHT22;53112;45.602;11.904;2023-02-01T04:49:43;1.80;66.60
62575;DHT22;53112;45.602;11.904;2023-02-01T04:52:09;1.80;67.00
62575;DHT22;53112;45.602;11.904;2023-02-01T04:54:35;1.40;68.20
62575;DHT22;53112;45.602;11.904;2023-02-01T04:57:00;1.40;70.70
62575;DHT22;53112;45.602;11.904;2023-02-01T04:59:26;1.60;69.70
62575;DHT22;53112;45.602;11.904;2023-02-01T05:01:53;1.70;67.80
62575;DHT22;53112;45.602;11.904;2023-02-01T05:04:19;1.70;69.00
62575;DHT22;53112;45.602;11.904;2023-02-01T05:06:45;1.30;69.90
62575;DHT22;53112;45.602;11.904;2023-02-01T05:09:11;1.30;71.30
62575;DHT22;53112;45.602;11.904;2023-02-01T05:11:37;1.50;71.00
62575;DHT22;53112;45.602;11.904;2023-02-01T05:14:21;1.50;70.80
62575;DHT22;53112;45.602;11.904;2023-02-01T05:16:47;1.70;69.20
62575;DHT22;53112;45.602;11.904;2023-02-01T05:19:13;1.60;70.40
62575;DHT22;53112;45.602;11.904;2023-02-01T05:21:39;1.80;69.50
62575;DHT22;53112;45.602;11.904;2023-02-01T05:24:07;2.10;68.70
62575;DHT22;53112;45.602;11.904;2023-02-01T05:26:37;2.20;68.30
62575;DHT22;53112;45.602;11.904;2023-02-01T05:29:04;2.10;69.20
62575;DHT22;53112;45.602;11.904;2023-02-01T05:31:29;2.10;69.70
62575;DHT22;53112;45.602;11.904;2023-02-01T05:33:55;2.20;69.70
62575;DHT22;53112;45.602;11.904;2023-02-01T05:36:21;2.60;68.40
62575;DHT22;53112;45.602;11.904;2023-02-01T05:38:47;2.80;68.40
62575;DHT22;53112;45.602;11.904;2023-02-01T05:41:13;3.00;66.70
62575;DHT22;53112;45.602;11.904;2023-02-01T05:43:38;2.70;68.00
62575;DHT22;53112;45.602;11.904;2023-02-01T05:46:04;2.60;69.10
62575;DHT22;53112;45.602;11.904;2023-02-01T05:48:30;2.80;68.10
62575;DHT22;53112;45.602;11.904;2023-02-01T05:50:56;2.60;69.10
62575;DHT22;53112;45.602;11.904;2023-02-01T05:53:22;2.50;70.30
62575;DHT22;53112;45.602;11.904;2023-02-01T05:55:48;2.60;69.70
62575;DHT22;53112;45.602;11.904;2023-02-01T05:58:14;2.70;69.60
62575;DHT22;53112;45.602;11.904;2023-02-01T06:00:40;2.90;68.40
62575;DHT22;53112;45.602;11.904;2023-02-01T06:03:07;2.80;68.70
62575;DHT22;53112;45.602;11.904;2023-02-01T06:05:33;2.70;68.80
62575;DHT22;53112;45.602;11.904;2023-02-01T06:07:58;3.00;68.90
62575;DHT22;53112;45.602;11.904;2023-02-01T06:10:24;3.00;68.70
62575;DHT22;53112;45.602;11.904;2023-02-01T06:12:50;3.20;67.90
62575;DHT22;53112;45.602;11.904;2023-02-01T06:15:16;3.50;67.00
62575;DHT22;53112;45.602;11.904;2023-02-01T06:17:44;3.60;66.90
62575;DHT22;53112;45.602;11.904;2023-02-01T06:20:12;3.80;67.30
62575;DHT22;53112;45.602;11.904;2023-02-01T06:22:38;3.70;66.50
62575;DHT22;53112;45.602;11.904;2023-02-01T06:25:05;3.30;67.10
62575;DHT22;53112;45.602;11.904;2023-02-01T06:27:32;3.50;66.70
62575;DHT22;53112;45.602;11.904;2023-02-01T06:29:58;3.80;65.50
62575;DHT22;53112;45.602;11.904;2023-02-01T06:32:24;3.60;66.50
62575;DHT22;53112;45.602;11.904;2023-02-01T06:34:50;3.70;67.20
62575;DHT22;53112;45.602;11.904;2023-02-01T06:37:18;3.90;66.00
62575;DHT22;53112;45.602;11.904;2023-02-01T06:39:44;3.70;65.30
62575;DHT22;53112;45.602;11.904;2023-02-01T06:42:10;3.50;65.90
62575;DHT22;53112;45.602;11.904;2023-02-01T06:44:36;3.40;66.30
62575;DHT22;53112;45.602;11.904;2023-02-01T06:47:03;3.70;65.80
62575;DHT22;53112;45.602;11.904;2023-02-01T06:49:30;4.00;65.70
62575;DHT22;53112;45.602;11.904;2023-02-01T06:51:56;4.20;64.70
62575;DHT22;53112;45.602;11.904;2023-02-01T06:54:22;4.10;64.00
62575;DHT22;53112;45.602;11.904;2023-02-01T06:56:48;4.20;64.60
62575;DHT22;53112;45.602;11.904;2023-02-01T06:59:14;4.10;65.00
62575;DHT22;53112;45.602;11.904;2023-02-01T07:01:39;4.20;65.10
62575;DHT22;53112;45.602;11.904;2023-02-01T07:04:05;4.50;64.40
62575;DHT22;53112;45.602;11.904;2023-02-01T07:06:31;4.50;63.90
62575;DHT22;53112;45.602;11.904;2023-02-01T07:08:57;4.60;63.90
62575;DHT22;53112;45.602;11.904;2023-02-01T07:11:23;4.60;63.90
62575;DHT22;53112;45.602;11.904;2023-02-01T07:13:49;4.50;64.50
62575;DHT22;53112;45.602;11.904;2023-02-01T07:16:18;4.30;65.00
62575;DHT22;53112;45.602;11.904;2023-02-01T07:18:44;4.30;64.70
62575;DHT22;53112;45.602;11.904;2023-02-01T07:21:11;4.60;64.20
62575;DHT22;53112;45.602;11.904;2023-02-01T07:23:37;4.50;63.70
62575;DHT22;53112;45.602;11.904;2023-02-01T07:26:05;4.20;65.70
62575;DHT22;53112;45.602;11.904;2023-02-01T07:28:34;4.20;65.10
62575;DHT22;53112;45.602;11.904;2023-02-01T07:31:10;4.30;64.70
62575;DHT22;53112;45.602;11.904;2023-02-01T07:33:37;4.30;64.40
62575;DHT22;53112;45.602;11.904;2023-02-01T07:36:06;4.50;64.20
62575;DHT22;53112;45.602;11.904;2023-02-01T07:38:33;4.40;64.00
62575;DHT22;53112;45.602;11.904;2023-02-01T07:41:00;4.30;64.90
62575;DHT22;53112;45.602;11.904;2023-02-01T07:43:27;4.40;64.70
62575;DHT22;53112;45.602;11.904;2023-02-01T07:45:54;4.60;64.20
62575;DHT22;53112;45.602;11.904;2023-02-01T07:48:22;4.70;63.90
62575;DHT22;53112;45.602;11.904;2023-02-01T07:50:48;4.80;64.80
62575;DHT22;53112;45.602;11.904;2023-02-01T07:53:14;5.00;64.20
62575;DHT22;53112;45.602;11.904;2023-02-01T07:55:40;4.90;63.50
62575;DHT22;53112;45.602;11.904;2023-02-01T07:58:07;4.90;63.80
62575;DHT22;53112;45.602;11.904;2023-02-01T08:00:32;4.90;63.50
62575;DHT22;53112;45.602;11.904;2023-02-01T08:03:17;5.20;63.60
62575;DHT22;53112;45.602;11.904;2023-02-01T08:05:43;5.40;62.40
62575;DHT22;53112;45.602;11.904;2023-02-01T08:08:09;5.60;61.30
62575;DHT22;53112;45.602;11.904;2023-02-01T08:10:35;5.90;60.20
62575;DHT22;53112;45.602;11.904;2023-02-01T08:13:01;5.70;59.80
62575;DHT22;53112;45.602;11.904;2023-02-01T08:15:29;5.80;58.50
62575;DHT22;53112;45.602;11.904;2023-02-01T08:17:55;5.70;59.80
62575;DHT22;53112;45.602;11.904;2023-02-01T08:20:21;5.90;60.00
62575;DHT22;53112;45.602;11.904;2023-02-01T08:22:49;6.10;58.70
62575;DHT22;53112;45.602;11.904;2023-02-01T08:25:16;6.10;59.10
62575;DHT22;53112;45.602;11.904;2023-02-01T08:27:42;6.20;59.40
62575;DHT22;53112;45.602;11.904;2023-02-01T08:30:09;6.50;57.40
62575;DHT22;53112;45.602;11.904;2023-02-01T08:32:35;6.60;58.20
62575;DHT22;53112;45.602;11.904;2023-02-01T08:35:01;6.50;58.10
62575;DHT22;53112;45.602;11.904;2023-02-01T08:37:27;6.50;58.40
62575;DHT22;53112;45.602;11.904;2023-02-01T08:39:53;6.40;58.70
62575;DHT22;53112;45.602;11.904;2023-02-01T08:42:19;6.60;58.10
62575;DHT22;53112;45.602;11.904;2023-02-01T08:45:04;6.90;57.10
62575;DHT22;53112;45.602;11.904;2023-02-01T08:47:31;7.10;56.00
62575;DHT22;53112;45.602;11.904;2023-02-01T08:49:56;7.20;55.40
62575;DHT22;53112;45.602;11.904;2023-02-01T08:52:22;7.20;55.30
62575;DHT22;53112;45.602;11.904;2023-02-01T08:54:48;7.30;54.80
62575;DHT22;53112;45.602;11.904;2023-02-01T08:57:14;7.50;54.80
62575;DHT22;53112;45.602;11.904;2023-02-01T08:59:40;8.00;53.80
62575;DHT22;53112;45.602;11.904;2023-02-01T09:02:08;8.30;52.60
62575;DHT22;53112;45.602;11.904;2023-02-01T09:04:37;8.40;52.20
62575;DHT22;53112;45.602;11.904;2023-02-01T09:07:03;8.60;52.20
62575;DHT22;53112;45.602;11.904;2023-02-01T09:09:29;8.30;51.80
62575;DHT22;53112;45.602;11.904;2023-02-01T09:11:55;8.50;53.20
62575;DHT22;53112;45.602;11.904;2023-02-01T09:14:20;9.50;50.40
62575;DHT22;53112;45.602;11.904;2023-02-01T09:16:46;9.30;50.00
62575;DHT22;53112;45.602;11.904;2023-02-01T09:19:12;9.30;50.20
62575;DHT22;53112;45.602;11.904;2023-02-01T09:21:38;9.50;49.60
62575;DHT22;53112;45.602;11.904;2023-02-01T09:24:04;9.80;48.60
62575;DHT22;53112;45.602;11.904;2023-02-01T09:26:30;10.20;47.00
62575;DHT22;53112;45.602;11.904;2023-02-01T09:28:56;10.20;47.50
62575;DHT22;53112;45.602;11.904;2023-02-01T09:31:22;10.50;47.80
62575;DHT22;53112;45.602;11.904;2023-02-01T09:35:08;10.20;47.40
62575;DHT22;53112;45.602;11.904;2023-02-01T09:37:34;10.60;47.30
62575;DHT22;53112;45.602;11.904;2023-02-01T09:40:00;10.60;47.50
62575;DHT22;53112;45.602;11.904;2023-02-01T09:47:54;11.20;46.60
62575;DHT22;53112;45.602;11.904;2023-02-01T09:50:23;11.90;45.70
62575;DHT22;53112;45.602;11.904;2023-02-01T09:53:02;12.50;43.00
62575;DHT22;53112;45.602;11.904;2023-02-01T09:55:32;12.20;46.30
62575;DHT22;53112;45.602;11.904;2023-02-01T09:58:45;12.10;44.10
62575;DHT22;53112;45.602;11.904;2023-02-01T10:01:19;11.90;44.60
62575;DHT22;53112;45.602;11.904;2023-02-01T10:03:45;12.10;45.40
62575;DHT22;53112;45.602;11.904;2023-02-01T10:06:41;12.10;45.90
62575;DHT22;53112;45.602;11.904;2023-02-01T10:09:34;12.30;45.10
62575;DHT22;53112;45.602;11.904;2023-02-01T10:20:28;13.30;44.00
62575;DHT22;53112;45.602;11.904;2023-02-01T10:25:43;13.30;42.80
62575;DHT22;53112;45.602;11.904;2023-02-01T10:28:15;13.40;43.20
62575;DHT22;53112;45.602;11.904;2023-02-01T10:30:46;13.10;43.80
62575;DHT22;53112;45.602;11.904;2023-02-01T10:33:17;13.30;43.40
62575;DHT22;53112;45.602;11.904;2023-02-01T10:35:47;14.00;42.50
62575;DHT22;53112;45.602;11.904;2023-02-01T10:38:28;14.60;41.70
62575;DHT22;53112;45.602;11.904;2023-02-01T10:41:00;14.40;41.10
62575;DHT22;53112;45.602;11.904;2023-02-01T10:43:27;14.70;40.90
62575;DHT22;53112;45.602;11.904;2023-02-01T10:45:53;15.70;40.40
62575;DHT22;53112;45.602;11.904;2023-02-01T10:48:19;15.60;38.80
62575;DHT22;53112;45.602;11.904;2023-02-01T10:51:16;15.90;39.50
62575;DHT22;53112;45.602;11.904;2023-02-01T10:54:02;15.40;40.10
62575;DHT22;53112;45.602;11.904;2023-02-01T10:56:29;15.70;39.90
62575;DHT22;53112;45.602;11.904;2023-02-01T10:59:02;16.40;38.10
62575;DHT22;53112;45.602;11.904;2023-02-01T11:01:34;17.00;37.50
62575;DHT22;53112;45.602;11.904;2023-02-01T11:04:05;17.30;37.20
62575;DHT22;53112;45.602;11.904;2023-02-01T11:06:35;17.90;36.10
62575;DHT22;53112;45.602;11.904;2023-02-01T11:11:54;19.30;34.00
62575;DHT22;53112;45.602;11.904;2023-02-01T11:14:40;19.40;33.60
62575;DHT22;53112;45.602;11.904;2023-02-01T11:20:12;20.10;32.80
62575;DHT22;53112;45.602;11.904;2023-02-01T11:22:48;19.50;33.20
62575;DHT22;53112;45.602;11.904;2023-02-01T11:25:16;19.80;33.20
62575;DHT22;53112;45.602;11.904;2023-02-01T11:27:43;19.90;33.50
62575;DHT22;53112;45.602;11.904;2023-02-01T11:30:32;20.60;31.10
62575;DHT22;53112;45.602;11.904;2023-02-01T11:33:00;20.40;31.90
62575;DHT22;53112;45.602;11.904;2023-02-01T11:35:27;20.20;31.80
62575;DHT22;53112;45.602;11.904;2023-02-01T11:37:57;20.60;31.10
62575;DHT22;53112;45.602;11.904;2023-02-01T11:40:37;20.80;31.60
62575;DHT22;53112;45.602;11.904;2023-02-01T11:43:22;21.20;30.50
62575;DHT22;53112;45.602;11.904;2023-02-01T11:46:00;20.60;32.10
62575;DHT22;53112;45.602;11.904;2023-02-01T11:48:32;19.90;33.50
62575;DHT22;53112;45.602;11.904;2023-02-01T11:56:39;19.50;33.90
62575;DHT22;53112;45.602;11.904;2023-02-01T12:01:52;20.60;31.80
62575;DHT22;53112;45.602;11.904;2023-02-01T12:07:44;17.80;35.40
62575;DHT22;53112;45.602;11.904;2023-02-01T12:18:58;20.10;33.30
62575;DHT22;53112;45.602;11.904;2023-02-01T12:21:26;20.20;33.20
62575;DHT22;53112;45.602;11.904;2023-02-01T12:32:08;22.20;29.90
62575;DHT22;53112;45.602;11.904;2023-02-01T12:43:25;22.40;29.60
62575;DHT22;53112;45.602;11.904;2023-02-01T12:46:03;22.50;29.50
62575;DHT22;53112;45.602;11.904;2023-02-01T12:48:38;23.00;29.10
62575;DHT22;53112;45.602;11.904;2023-02-01T12:51:11;22.50;28.50
62575;DHT22;53112;45.602;11.904;2023-02-01T12:53:46;22.60;29.00
62575;DHT22;53112;45.602;11.904;2023-02-01T12:56:24;23.00;28.40
62575;DHT22;53112;45.602;11.904;2023-02-01T12:58:53;23.00;28.10
62575;DHT22;53112;45.602;11.904;2023-02-01T13:01:35;23.10;28.60
62575;DHT22;53112;45.602;11.904;2023-02-01T13:04:10;23.10;28.10
62575;DHT22;53112;45.602;11.904;2023-02-01T13:06:51;23.40;27.40
62575;DHT22;53112;45.602;11.904;2023-02-01T13:09:34;23.40;27.50
62575;DHT22;53112;45.602;11.904;2023-02-01T13:12:26;23.20;28.00
62575;DHT22;53112;45.602;11.904;2023-02-01T13:15:01;24.10;26.70
62575;DHT22;53112;45.602;11.904;2023-02-01T13:17:30;22.60;28.00
62575;DHT22;53112;45.602;11.904;2023-02-01T13:23:10;25.70;25.50
62575;DHT22;53112;45.602;11.904;2023-02-01T13:25:51;26.80;23.90
62575;DHT22;53112;45.602;11.904;2023-02-01T13:28:36;26.20;23.20
62575;DHT22;53112;45.602;11.904;2023-02-01T13:31:28;22.70;27.00
62575;DHT22;53112;45.602;11.904;2023-02-01T13:39:47;23.70;27.40
62575;DHT22;53112;45.602;11.904;2023-02-01T13:42:25;25.40;24.40
62575;DHT22;53112;45.602;11.904;2023-02-01T13:45:04;26.10;23.70
62575;DHT22;53112;45.602;11.904;2023-02-01T13:47:43;26.50;23.70
62575;DHT22;53112;45.602;11.904;2023-02-01T13:50:32;26.00;24.00
62575;DHT22;53112;45.602;11.904;2023-02-01T13:53:30;24.30;25.20
62575;DHT22;53112;45.602;11.904;2023-02-01T13:56:11;24.20;25.30
62575;DHT22;53112;45.602;11.904;2023-02-01T13:58:39;24.10;25.40
62575;DHT22;53112;45.602;11.904;2023-02-01T14:03:53;23.40;27.50
62575;DHT22;53112;45.602;11.904;2023-02-01T14:09:12;24.40;25.40
62575;DHT22;53112;45.602;11.904;2023-02-01T14:11:54;26.10;24.30
62575;DHT22;53112;45.602;11.904;2023-02-01T14:19:30;28.60;21.50
62575;DHT22;53112;45.602;11.904;2023-02-01T14:24:41;28.10;22.00
62575;DHT22;53112;45.602;11.904;2023-02-01T14:27:21;27.20;22.60
62575;DHT22;53112;45.602;11.904;2023-02-01T14:29:56;27.80;22.70
62575;DHT22;53112;45.602;11.904;2023-02-01T14:34:54;27.60;22.30
62575;DHT22;53112;45.602;11.904;2023-02-01T14:47:53;26.20;23.10
62575;DHT22;53112;45.602;11.904;2023-02-01T14:50:32;26.40;22.70
62575;DHT22;53112;45.602;11.904;2023-02-01T15:04:05;24.90;25.00
62575;DHT22;53112;45.602;11.904;2023-02-01T15:06:50;22.90;26.90
62575;DHT22;53112;45.602;11.904;2023-02-01T15:09:23;21.30;29.40
62575;DHT22;53112;45.602;11.904;2023-02-01T15:14:19;19.90;31.60
62575;DHT22;53112;45.602;11.904;2023-02-01T15:16:45;19.20;32.50
62575;DHT22;53112;45.602;11.904;2023-02-01T15:19:24;18.70;33.30
62575;DHT22;53112;45.602;11.904;2023-02-01T15:21:53;18.30;33.90
62575;DHT22;53112;45.602;11.904;2023-02-01T15:24:28;18.00;34.50
62575;DHT22;53112;45.602;11.904;2023-02-01T15:26:56;17.70;35.10
62575;DHT22;53112;45.602;11.904;2023-02-01T15:29:27;17.20;35.70
62575;DHT22;53112;45.602;11.904;2023-02-01T15:31:57;16.80;36.30
62575;DHT22;53112;45.602;11.904;2023-02-01T15:34:23;16.70;36.70
62575;DHT22;53112;45.602;11.904;2023-02-01T15:37:13;16.50;37.20
62575;DHT22;53112;45.602;11.904;2023-02-01T15:40:05;16.10;37.90
62575;DHT22;53112;45.602;11.904;2023-02-01T15:42:33;15.80;38.50
62575;DHT22;53112;45.602;11.904;2023-02-01T15:44:59;15.70;38.60
62575;DHT22;53112;45.602;11.904;2023-02-01T15:47:27;15.80;38.30
62575;DHT22;53112;45.602;11.904;2023-02-01T15:49:57;15.60;38.70
62575;DHT22;53112;45.602;11.904;2023-02-01T15:55:02;15.00;40.00
62575;DHT22;53112;45.602;11.904;2023-02-01T15:57:36;15.00;39.80
62575;DHT22;53112;45.602;11.904;2023-02-01T16:00:28;14.70;40.60
62575;DHT22;53112;45.602;11.904;2023-02-01T16:02:58;14.50;41.10
62575;DHT22;53112;45.602;11.904;2023-02-01T16:05:42;14.20;41.50
62575;DHT22;53112;45.602;11.904;2023-02-01T16:08:10;14.10;41.20
62575;DHT22;53112;45.602;11.904;2023-02-01T16:10:44;14.00;41.30
62575;DHT22;53112;45.602;11.904;2023-02-01T16:13:11;13.90;41.40
62575;DHT22;53112;45.602;11.904;2023-02-01T16:15:38;13.70;41.80
62575;DHT22;53112;45.602;11.904;2023-02-01T16:18:04;13.50;41.90
62575;DHT22;53112;45.602;11.904;2023-02-01T16:20:30;13.20;43.10
62575;DHT22;53112;45.602;11.904;2023-02-01T16:22:58;13.00;43.10
62575;DHT22;53112;45.602;11.904;2023-02-01T16:25:24;12.90;43.30
62575;DHT22;53112;45.602;11.904;2023-02-01T16:27:50;12.60;44.30
62575;DHT22;53112;45.602;11.904;2023-02-01T16:30:16;12.40;44.90
62575;DHT22;53112;45.602;11.904;2023-02-01T16:32:48;12.20;44.70
62575;DHT22;53112;45.602;11.904;2023-02-01T16:35:26;12.00;44.90
62575;DHT22;53112;45.602;11.904;2023-02-01T16:37:52;11.90;45.40
62575;DHT22;53112;45.602;11.904;2023-02-01T16:40:19;11.70;46.70
62575;DHT22;53112;45.602;11.904;2023-02-01T16:42:50;11.60;45.70
62575;DHT22;53112;45.602;11.904;2023-02-01T16:45:16;11.50;45.90
62575;DHT22;53112;45.602;11.904;2023-02-01T16:47:47;11.40;46.50
62575;DHT22;53112;45.602;11.904;2023-02-01T16:50:18;11.20;46.50
62575;DHT22;53112;45.602;11.904;2023-02-01T16:52:44;11.10;46.40
62575;DHT22;53112;45.602;11.904;2023-02-01T16:55:18;11.00;46.70
62575;DHT22;53112;45.602;11.904;2023-02-01T16:57:45;10.90;47.00
62575;DHT22;53112;45.602;11.904;2023-02-01T17:00:12;10.80;47.50
62575;DHT22;53112;45.602;11.904;2023-02-01T17:02:38;10.80;47.40
62575;DHT22;53112;45.602;11.904;2023-02-01T17:05:08;10.70;48.00
62575;DHT22;53112;45.602;11.904;2023-02-01T17:07:35;10.60;47.60
62575;DHT22;53112;45.602;11.904;2023-02-01T17:10:04;10.50;48.30
62575;DHT22;53112;45.602;11.904;2023-02-01T17:12:32;10.30;48.60
62575;DHT22;53112;45.602;11.904;2023-02-01T17:14:59;10.00;50.00
62575;DHT22;53112;45.602;11.904;2023-02-01T17:17:34;9.70;50.80
62575;DHT22;53112;45.602;11.904;2023-02-01T17:20:01;9.80;49.70
62575;DHT22;53112;45.602;11.904;2023-02-01T17:22:28;9.80;49.20
62575;DHT22;53112;45.602;11.904;2023-02-01T17:24:54;9.70;49.50
62575;DHT22;53112;45.602;11.904;2023-02-01T17:27:20;9.60;49.40
62575;DHT22;53112;45.602;11.904;2023-02-01T17:29:45;9.40;51.40
62575;DHT22;53112;45.602;11.904;2023-02-01T17:32:23;8.90;55.30
62575;DHT22;53112;45.602;11.904;2023-02-01T17:34:50;8.80;54.10
62575;DHT22;53112;45.602;11.904;2023-02-01T17:37:30;8.90;52.30
62575;DHT22;53112;45.602;11.904;2023-02-01T17:39:57;8.90;53.10
62575;DHT22;53112;45.602;11.904;2023-02-01T17:42:24;8.70;54.00
62575;DHT22;53112;45.602;11.904;2023-02-01T17:44:57;8.60;53.60
62575;DHT22;53112;45.602;11.904;2023-02-01T17:47:23;8.10;56.20
62575;DHT22;53112;45.602;11.904;2023-02-01T17:49:49;8.20;54.20
62575;DHT22;53112;45.602;11.904;2023-02-01T17:52:23;8.40;52.40
62575;DHT22;53112;45.602;11.904;2023-02-01T17:54:49;8.40;55.20
62575;DHT22;53112;45.602;11.904;2023-02-01T17:57:18;8.10;58.60
62575;DHT22;53112;45.602;11.904;2023-02-01T17:59:44;8.10;56.10
62575;DHT22;53112;45.602;11.904;2023-02-01T18:02:30;8.10;55.20
62575;DHT22;53112;45.602;11.904;2023-02-01T18:04:56;8.10;56.60
62575;DHT22;53112;45.602;11.904;2023-02-01T18:07:23;7.60;58.20
62575;DHT22;53112;45.602;11.904;2023-02-01T18:09:49;7.50;57.90
62575;DHT22;53112;45.602;11.904;2023-02-01T18:12:21;7.70;56.50
62575;DHT22;53112;45.602;11.904;2023-02-01T18:14:47;7.70;56.90
62575;DHT22;53112;45.602;11.904;2023-02-01T18:17:13;7.70;56.90